Modesto City Co-Harry Sham Field
KMOD : rendu visible

Aérodrome :











RETROUVEZ-NOUS SUR...

 
LOGIN :

S'inscrire | Disclaimer

   EN    FR    IT 

 









Légende :    VFR   VFR Marginal   IFR   IFR Intensif   IFR Très Intensif
Visi : 
Plafond : 
>= 8 km
>= 3000ft
5 à 8 km
1000 à 3000 ft
1500m à 5 km
500 à 1000 ft
800 à 1500m
200 à 500 ft
< 800m
< 200 ft
Symboles :   Orages  Brouillard  Fortes neiges  Fortes précipitations  Vent > 20 kt






- Altitude de l'aérodrome : 97 ft
- Code IATA : MOD


KMOD - Modesto City Co-Harry Sham Field

DERNIER METAR :
  • 171253Z AUTO 12003KT 5SM BR CLR 07/06 A3011 RMK AO2 SLP196 T00720061

METARs EXPIRÉS :
  • 171153Z AUTO 11003KT 5SM BR CLR 08/07 A3011 RMK AO2 SLP194 T00780067 10111 20078 50001
  • 171053Z AUTO 00000KT 6SM BR CLR 08/07 A3011 RMK AO2 SLP196 T00830072

TAF KMOD
Valide du 17 à 12h jusqu'au 18 à 12h UTC


171120Z 1712/1812 VRB03KT 5SM BR SKC
FM171500 VRB02KT 1/2SM FG SKC
FM171700 35002KT 4SM HZ SKC
FM172000 32002KT P6SM SKC



MET'MAP, la Météo Aéronautique d'un coup d'oeil ! - Copyright ORBIFLY Décembre 2007 - Disclaimer

ORBIFLY MET'MAP TEAM :

Programmation & Développement : Alexandra Zaïnal
Conception & Développement : Baudouin d'Aumeries
Co-Programmation & Développement : Marc-Olivier Méhu
Soutien technique & logistique : Manuel Goepfert

Contact : metmap@orbifly.com




SOURCES & CREDITS :

   NOAA       Earth
Advisory